Time;durP1;ratioP1;P1;durP2;ratioP2;P2;SDS_P1;SDS_P2;PMS_P1;PMS_P2;Temp;Humidity;BMP_temperature;BMP_pressure;BME280_temperature;BME280_humidity;BME280_pressure;Samples;Min_cycle;Max_cycle;Signal;HPM_P1;HPM_P2
2022/04/18 00:00:10;;;;;;;1.05;0.95;;;13.80;91.60;;;;;;5076249;28;20171;-76
2022/04/18 00:02:36;;;;;;;1.58;1.10;;;13.70;92.00;;;;;;5076519;28;20534;-80
2022/04/18 00:05:02;;;;;;;2.20;1.05;;;13.60;91.50;;;;;;5076755;28;20190;-76
2022/04/18 00:07:28;;;;;;;0.73;0.70;;;13.60;91.60;;;;;;5077013;28;20167;-85
2022/04/18 00:09:53;;;;;;;1.25;1.15;;;13.70;91.80;;;;;;5076427;28;20173;-74
2022/04/18 00:12:19;;;;;;;2.10;1.15;;;13.60;91.50;;;;;;5076416;28;20264;-81
2022/04/18 00:14:45;;;;;;;1.35;1.10;;;13.70;91.10;;;;;;5076153;28;20194;-84
2022/04/18 00:17:11;;;;;;;1.38;1.20;;;13.70;90.50;;;;;;5076602;28;20170;-79
2022/04/18 00:19:37;;;;;;;0.90;0.88;;;13.70;90.30;;;;;;5076613;28;20565;-86
2022/04/18 00:22:04;;;;;;;0.90;0.80;;;13.60;90.10;;;;;;5076433;28;20220;-75
2022/04/18 00:24:30;;;;;;;1.48;0.90;;;13.50;90.20;;;;;;5076457;28;20174;-79
2022/04/18 00:26:55;;;;;;;1.00;0.93;;;13.40;90.00;;;;;;5076159;28;20170;-82
2022/04/18 00:29:21;;;;;;;0.95;0.95;;;13.40;89.70;;;;;;5076162;28;20155;-77
2022/04/18 00:31:46;;;;;;;0.95;0.70;;;13.50;89.10;;;;;;5075915;28;20509;-87
2022/04/18 00:34:14;;;;;;;0.75;0.63;;;13.60;89.50;;;;;;5076373;28;20260;-90
2022/04/18 00:36:39;;;;;;;1.15;0.80;;;13.60;88.90;;;;;;5076634;28;20634;-89
2022/04/18 00:39:05;;;;;;;1.40;0.85;;;13.60;89.00;;;;;;5076310;28;20185;-87
2022/04/18 00:41:30;;;;;;;1.90;0.70;;;13.50;88.80;;;;;;5079956;28;20203;-76
2022/04/18 00:43:56;;;;;;;0.88;0.88;;;13.60;88.70;;;;;;5077242;28;20697;-81
2022/04/18 00:46:22;;;;;;;0.80;0.77;;;13.60;88.70;;;;;;5076130;28;20579;-80
2022/04/18 00:48:48;;;;;;;2.80;0.68;;;13.40;88.90;;;;;;5076213;28;20173;-78
2022/04/18 00:51:20;;;;;;;0.93;0.82;;;13.30;89.30;;;;;;5075920;28;20167;-88
2022/04/18 00:53:46;;;;;;;3.05;0.90;;;13.40;90.00;;;;;;5074910;28;20285;-84
2022/04/18 00:56:15;;;;;;;2.22;1.08;;;13.50;89.10;;;;;;5075802;28;20170;-76
2022/04/18 00:58:41;;;;;;;2.42;1.23;;;13.50;89.50;;;;;;5075356;28;20170;-81
2022/04/18 01:01:08;;;;;;;1.08;0.98;;;13.50;89.70;;;;;;5075370;28;20170;-76
2022/04/18 01:03:34;;;;;;;1.48;0.90;;;13.40;89.90;;;;;;5075390;28;20182;-82
2022/04/18 01:06:00;;;;;;;1.23;1.00;;;13.30;90.30;;;;;;5075727;28;20185;-84
2022/04/18 01:08:28;;;;;;;1.08;1.00;;;13.30;90.10;;;;;;5075885;28;20205;-78
2022/04/18 01:10:54;;;;;;;1.27;1.08;;;13.30;90.20;;;;;;5075882;28;20249;-86
2022/04/18 01:13:21;;;;;;;1.92;1.00;;;13.20;90.20;;;;;;5075068;28;20233;-89
2022/04/18 01:15:54;;;;;;;2.35;0.90;;;13.30;90.30;;;;;;5075672;28;20285;-81
2022/04/18 01:18:21;;;;;;;0.70;0.70;;;13.20;90.40;;;;;;5075664;28;20175;-91
2022/04/18 01:20:46;;;;;;;1.35;0.77;;;13.20;90.40;;;;;;5075833;28;20196;-81
2022/04/18 01:23:12;;;;;;;0.70;0.70;;;13.20;90.60;;;;;;5075683;28;20182;-90
2022/04/18 01:31:05;;;;;;;1.73;0.80;;;13.20;90.60;;;;;;5075779;28;20188;-87
2022/04/18 01:33:31;;;;;;;3.60;0.93;;;13.10;90.60;;;;;;5075536;28;20194;-88
2022/04/18 01:35:57;;;;;;;2.47;1.10;;;13.10;90.80;;;;;;5074907;28;20209;-87
2022/04/18 01:38:23;;;;;;;1.27;0.82;;;13.00;91.00;;;;;;5075098;28;20175;-84
2022/04/18 01:40:48;;;;;;;0.98;0.88;;;13.00;91.00;;;;;;5075654;28;20197;-87
2022/04/18 01:43:14;;;;;;;1.27;1.17;;;13.10;91.20;;;;;;5074968;28;20647;-82
2022/04/18 01:45:40;;;;;;;2.65;1.00;;;13.00;90.90;;;;;;5074638;28;20171;-83
2022/04/18 01:48:06;;;;;;;4.75;1.27;;;13.00;90.90;;;;;;5074841;28;20173;-81
2022/04/18 01:50:31;;;;;;;5.80;0.82;;;12.90;91.10;;;;;;5074801;28;20167;-89
2022/04/18 01:52:57;;;;;;;1.55;1.15;;;12.90;91.00;;;;;;5074568;28;20241;-84
2022/04/18 01:55:23;;;;;;;3.53;1.05;;;12.90;91.10;;;;;;5074413;28;20241;-85
2022/04/18 01:57:48;;;;;;;6.00;1.40;;;12.80;91.50;;;;;;5074501;28;20617;-77
2022/04/18 02:00:14;;;;;;;1.20;1.10;;;12.70;91.20;;;;;;5074260;28;20171;-81
2022/04/18 02:02:40;;;;;;;1.35;1.15;;;12.60;91.40;;;;;;5074414;28;20173;-81
2022/04/18 02:05:07;;;;;;;1.88;1.33;;;12.60;91.50;;;;;;5074347;28;20194;-79
2022/04/18 02:07:33;;;;;;;1.80;0.90;;;12.70;91.30;;;;;;5074758;28;20163;-82
2022/04/18 02:09:59;;;;;;;1.10;1.00;;;12.70;91.30;;;;;;5074188;28;20163;-80
2022/04/18 02:12:24;;;;;;;6.90;1.75;;;12.80;90.90;;;;;;5074642;28;20174;-83
2022/04/18 02:14:50;;;;;;;1.27;1.17;;;12.70;90.90;;;;;;5074211;28;20380;-80
2022/04/18 02:17:15;;;;;;;2.08;1.48;;;12.60;91.20;;;;;;5074360;28;20166;-87
2022/04/18 02:19:42;;;;;;;3.55;1.10;;;12.50;91.10;;;;;;5074345;28;20616;-85
2022/04/18 02:22:08;;;;;;;2.05;0.82;;;12.50;91.20;;;;;;5073840;28;20544;-82
2022/04/18 02:24:33;;;;;;;1.75;1.20;;;12.60;91.10;;;;;;5074276;28;20197;-87
2022/04/18 02:26:59;;;;;;;2.40;1.20;;;12.50;91.00;;;;;;5074147;28;20167;-87
2022/04/18 02:29:24;;;;;;;1.77;1.23;;;12.50;91.20;;;;;;5074206;28;20178;-80
2022/04/18 02:34:34;;;;;;;2.17;1.30;;;12.60;91.20;;;;;;5073570;28;20213;-85
2022/04/18 02:37:00;;;;;;;2.30;1.38;;;12.60;91.20;;;;;;5074177;28;20162;-88
2022/04/18 02:39:25;;;;;;;2.25;1.00;;;12.60;92.00;;;;;;5073925;28;20178;-85
2022/04/18 02:41:51;;;;;;;2.40;1.17;;;12.50;92.80;;;;;;5073789;28;20167;-81
2022/04/18 02:44:17;;;;;;;2.03;1.38;;;12.60;93.60;;;;;;5073704;28;20277;-81
2022/04/18 02:46:42;;;;;;;6.05;1.15;;;12.60;93.90;;;;;;5073470;28;20257;-83
2022/04/18 02:49:08;;;;;;;8.93;1.27;;;12.70;94.60;;;;;;5073498;28;20688;-83
2022/04/18 02:51:33;;;;;;;2.15;1.20;;;12.60;94.80;;;;;;5073931;28;20645;-79
2022/04/18 02:53:59;;;;;;;2.75;1.25;;;12.60;94.90;;;;;;5073310;28;20209;-80
2022/04/18 02:56:25;;;;;;;3.08;1.15;;;12.40;94.60;;;;;;5073349;28;20170;-84
2022/04/18 02:58:50;;;;;;;1.98;1.02;;;12.40;94.70;;;;;;5071985;28;20176;-81
2022/04/18 03:01:16;;;;;;;2.78;1.30;;;11.90;95.30;;;;;;5073509;28;20295;-79
2022/04/18 03:03:42;;;;;;;2.78;1.38;;;12.00;95.40;;;;;;5073320;28;20179;-85
2022/04/18 03:06:07;;;;;;;1.63;1.45;;;12.00;95.70;;;;;;5073098;28;20178;-77
2022/04/18 03:08:33;;;;;;;3.00;0.90;;;11.80;95.90;;;;;;5073148;28;20764;-76
2022/04/18 03:11:09;;;;;;;2.85;1.38;;;11.70;96.10;;;;;;5073097;28;20191;-86
2022/04/18 03:13:37;;;;;;;1.38;1.15;;;11.60;95.50;;;;;;5072718;28;20613;-79
2022/04/18 03:16:05;;;;;;;1.70;1.60;;;11.30;95.70;;;;;;5073073;28;20204;-81
2022/04/18 03:18:30;;;;;;;8.30;1.63;;;11.00;96.40;;;;;;5072568;28;20162;-83
2022/04/18 03:20:57;;;;;;;3.72;1.35;;;11.20;96.30;;;;;;5073244;28;20180;-80
2022/04/18 03:23:23;;;;;;;2.00;1.67;;;11.20;96.50;;;;;;5073095;28;20187;-84
2022/04/18 03:25:48;;;;;;;4.65;1.50;;;11.20;96.40;;;;;;5073584;28;20167;-80
2022/04/18 03:28:14;;;;;;;4.75;1.23;;;11.30;96.20;;;;;;5072850;28;20538;-87
2022/04/18 03:30:40;;;;;;;2.85;1.33;;;11.20;96.70;;;;;;5073482;28;20272;-82
2022/04/18 03:33:06;;;;;;;6.55;1.55;;;11.30;96.70;;;;;;5073085;28;20162;-84
2022/04/18 03:35:32;;;;;;;1.92;1.30;;;11.30;96.70;;;;;;5072946;28;20238;-76
2022/04/18 03:40:42;;;;;;;1.70;1.42;;;11.50;96.50;;;;;;5075611;28;20324;-75
2022/04/18 03:43:07;;;;;;;2.35;1.48;;;11.60;96.20;;;;;;5080561;28;20163;-76
2022/04/18 03:45:33;;;;;;;1.70;1.48;;;11.50;96.60;;;;;;5081440;28;20224;-75
2022/04/18 03:47:59;;;;;;;2.55;1.30;;;11.20;97.10;;;;;;5082117;28;20161;-78
2022/04/18 03:50:25;;;;;;;3.10;1.35;;;11.00;97.20;;;;;;5082732;28;20288;-75
2022/04/18 03:52:50;;;;;;;1.85;1.60;;;10.90;97.40;;;;;;5080254;28;20534;-75
2022/04/18 03:55:16;;;;;;;1.35;1.17;;;10.90;97.60;;;;;;5081996;28;20206;-77
2022/04/18 03:57:42;;;;;;;2.05;1.42;;;11.10;97.20;;;;;;5079034;28;20174;-74
2022/04/18 04:00:09;;;;;;;6.38;1.38;;;11.30;97.50;;;;;;5079861;28;20780;-77
2022/04/18 04:02:34;;;;;;;4.78;1.33;;;11.30;97.30;;;;;;5080597;28;20646;-79
2022/04/18 04:05:01;;;;;;;4.90;1.48;;;11.10;97.80;;;;;;5073255;28;20190;-77
2022/04/18 04:07:26;;;;;;;2.05;1.40;;;11.20;97.60;;;;;;5077792;28;20178;-83
2022/04/18 04:09:53;;;;;;;2.35;1.40;;;11.20;97.80;;;;;;5077787;28;20162;-80
2022/04/18 04:12:23;;;;;;;5.13;1.38;;;10.90;98.40;;;;;;5075999;28;20180;-80
2022/04/18 04:14:55;;;;;;;1.65;1.40;;;11.10;98.10;;;;;;5073464;28;20206;-81
2022/04/18 04:17:24;;;;;;;1.77;1.40;;;11.00;98.20;;;;;;5072681;28;20171;-83
2022/04/18 04:19:50;;;;;;;2.08;1.23;;;11.10;98.30;;;;;;5072178;28;20562;-84
2022/04/18 04:22:15;;;;;;;1.33;1.15;;;11.30;98.40;;;;;;5072239;28;20177;-84
2022/04/18 04:24:41;;;;;;;2.20;1.35;;;11.20;98.40;;;;;;5072095;28;20634;-81
2022/04/18 04:27:07;;;;;;;1.25;1.15;;;11.00;98.70;;;;;;5072065;28;20677;-83
2022/04/18 04:29:32;;;;;;;5.63;1.13;;;10.90;98.90;;;;;;5075315;28;20163;-81
2022/04/18 04:31:58;;;;;;;8.38;1.30;;;10.80;99.10;;;;;;5076060;28;20249;-80
2022/04/18 04:34:24;;;;;;;4.28;1.42;;;10.90;99.20;;;;;;5075790;28;20206;-85
2022/04/18 04:36:49;;;;;;;3.30;1.38;;;10.90;99.30;;;;;;5075853;28;20162;-77
2022/04/18 04:39:17;;;;;;;2.22;1.20;;;10.80;99.10;;;;;;5074547;28;20174;-80
2022/04/18 04:41:42;;;;;;;1.77;1.20;;;10.70;99.10;;;;;;5075828;28;20522;-77
2022/04/18 04:44:08;;;;;;;3.05;1.55;;;10.70;99.10;;;;;;5075828;28;20178;-82
2022/04/18 04:46:34;;;;;;;1.95;1.33;;;10.80;99.00;;;;;;5076186;28;20168;-80
2022/04/18 04:49:00;;;;;;;1.85;1.35;;;10.90;98.90;;;;;;5076314;28;20170;-76
2022/04/18 04:51:25;;;;;;;2.67;1.65;;;10.90;98.90;;;;;;5075668;28;20170;-80
2022/04/18 04:53:51;;;;;;;2.42;1.70;;;10.80;99.30;;;;;;5075900;28;20197;-86
2022/04/18 04:56:17;;;;;;;4.65;1.60;;;11.00;99.20;;;;;;5076131;28;20174;-82
2022/04/18 04:58:43;;;;;;;2.92;1.30;;;10.90;99.20;;;;;;5076021;28;20158;-81
2022/04/18 05:01:08;;;;;;;1.88;1.30;;;10.90;99.40;;;;;;5076038;28;20162;-82
2022/04/18 05:03:34;;;;;;;2.80;1.50;;;11.00;99.60;;;;;;5075426;28;20681;-75
2022/04/18 05:06:00;;;;;;;1.80;1.45;;;11.00;99.80;;;;;;5075456;28;20174;-83
2022/04/18 05:08:25;;;;;;;2.33;1.50;;;11.00;99.90;;;;;;5076015;28;20167;-84
2022/04/18 05:10:54;;;;;;;2.33;1.20;;;11.10;99.90;;;;;;5076107;28;20165;-86
2022/04/18 05:13:21;;;;;;;3.97;1.27;;;11.10;99.90;;;;;;5075902;28;20202;-81
2022/04/18 05:15:47;;;;;;;1.83;1.55;;;11.00;99.90;;;;;;5075858;28;20288;-91
2022/04/18 05:18:12;;;;;;;1.73;1.33;;;10.80;99.90;;;;;;5076015;28;20209;-89
2022/04/18 05:20:38;;;;;;;3.08;1.27;;;11.00;99.90;;;;;;5076109;28;20167;-88
2022/04/18 05:23:04;;;;;;;2.63;1.33;;;11.30;99.90;;;;;;5075854;28;20242;-85
2022/04/18 05:25:30;;;;;;;2.65;1.40;;;11.60;99.70;;;;;;5075680;28;20174;-88
2022/04/18 05:27:56;;;;;;;1.92;1.33;;;11.60;99.90;;;;;;5075734;28;20489;-91
2022/04/18 05:30:21;;;;;;;2.28;1.60;;;11.80;99.90;;;;;;5075627;28;20177;-86
2022/04/18 05:32:47;;;;;;;5.10;1.58;;;12.00;99.90;;;;;;5075772;28;20633;-86
2022/04/18 05:35:12;;;;;;;2.38;1.30;;;12.20;99.80;;;;;;5075562;28;20210;-83
2022/04/18 05:37:38;;;;;;;2.38;1.38;;;12.30;99.80;;;;;;5077707;28;20237;-84
2022/04/18 05:40:04;;;;;;;4.88;1.40;;;12.40;99.90;;;;;;5074785;28;20227;-85
2022/04/18 05:42:30;;;;;;;7.68;1.70;;;12.50;99.70;;;;;;5075327;28;20171;-86
2022/04/18 05:44:55;;;;;;;1.70;1.50;;;12.60;99.70;;;;;;5075960;28;20187;-90
2022/04/18 05:47:21;;;;;;;1.33;1.23;;;12.80;99.60;;;;;;5076019;28;20212;-90
2022/04/18 05:49:47;;;;;;;2.38;1.50;;;13.00;99.20;;;;;;5077948;28;20177;-82
2022/04/18 05:52:15;;;;;;;8.82;2.25;;;13.20;98.50;;;;;;5084032;28;20169;-84
2022/04/18 05:54:40;;;;;;;11.77;2.08;;;13.40;98.00;;;;;;5093481;28;20195;-77
2022/04/18 05:57:06;;;;;;;2.58;1.65;;;13.60;98.20;;;;;;5076541;28;20591;-79
2022/04/18 05:59:32;;;;;;;5.82;1.75;;;13.70;98.30;;;;;;5074979;28;20166;-77
2022/04/18 06:01:57;;;;;;;7.57;1.77;;;13.80;98.40;;;;;;5075723;28;20292;-76
2022/04/18 06:04:23;;;;;;;5.45;1.70;;;13.90;98.10;;;;;;5079748;28;20186;-76
2022/04/18 06:06:49;;;;;;;2.05;1.40;;;14.00;97.40;;;;;;5078097;28;20186;-75
2022/04/18 06:09:14;;;;;;;1.27;1.08;;;14.20;96.90;;;;;;5080373;28;20174;-77
2022/04/18 06:11:40;;;;;;;1.83;1.40;;;14.20;95.50;;;;;;5078807;28;20653;-78
2022/04/18 06:14:07;;;;;;;2.47;1.40;;;14.20;93.80;;;;;;5077824;28;20297;-76
2022/04/18 06:16:33;;;;;;;1.52;1.15;;;14.30;93.30;;;;;;5079327;28;20207;-76
2022/04/18 06:18:58;;;;;;;2.78;1.23;;;14.30;92.60;;;;;;5078145;28;20162;-75
2022/04/18 06:21:24;;;;;;;2.42;1.42;;;14.40;92.50;;;;;;5079162;28;20171;-78
2022/04/18 06:23:50;;;;;;;2.03;1.23;;;14.50;92.20;;;;;;5080726;28;20186;-75
2022/04/18 06:26:15;;;;;;;6.18;1.50;;;14.50;92.40;;;;;;5081152;28;20206;-75
2022/04/18 06:28:41;;;;;;;7.32;1.65;;;14.30;92.30;;;;;;5080844;28;20201;-76
2022/04/18 06:31:06;;;;;;;8.02;1.75;;;14.30;92.30;;;;;;5078598;28;20573;-75
2022/04/18 06:33:34;;;;;;;2.55;1.70;;;14.50;92.20;;;;;;5073708;28;20213;-80
2022/04/18 06:36:00;;;;;;;1.98;1.75;;;14.70;92.20;;;;;;5074266;28;20205;-80
2022/04/18 06:38:26;;;;;;;4.47;1.60;;;15.10;91.20;;;;;;5094437;28;20166;-82
2022/04/18 06:40:52;;;;;;;2.42;1.52;;;15.40;90.80;;;;;;5095815;28;20166;-76
2022/04/18 06:43:17;;;;;;;2.72;1.77;;;15.40;90.70;;;;;;5095202;28;20213;-75
2022/04/18 06:45:43;;;;;;;1.27;1.00;;;15.40;90.50;;;;;;5093765;28;20173;-75
2022/04/18 06:48:08;;;;;;;5.00;1.15;;;15.20;91.90;;;;;;5093613;28;20201;-80
2022/04/18 06:50:34;;;;;;;2.17;1.40;;;15.20;91.80;;;;;;5093697;28;20173;-83
2022/04/18 06:52:59;;;;;;;7.78;1.50;;;15.20;90.90;;;;;;5092640;28;20166;-86
2022/04/18 06:55:25;;;;;;;3.45;1.55;;;15.40;90.60;;;;;;5093267;28;20629;-84
2022/04/18 06:57:51;;;;;;;1.90;1.55;;;15.60;90.40;;;;;;5094209;28;20168;-77
2022/04/18 07:00:17;;;;;;;5.20;1.40;;;15.50;89.90;;;;;;5094015;28;20236;-75
2022/04/18 07:02:50;;;;;;;1.25;1.15;;;15.70;89.90;;;;;;5093576;28;20184;-76
2022/04/18 07:05:15;;;;;;;6.22;1.45;;;15.60;90.40;;;;;;5093597;28;20260;-80
2022/04/18 07:07:42;;;;;;;3.70;1.30;;;15.70;89.20;;;;;;5093590;28;20209;-77
2022/04/18 07:10:08;;;;;;;1.83;1.30;;;15.90;89.40;;;;;;5093389;28;20222;-77
2022/04/18 07:12:34;;;;;;;2.10;1.35;;;16.00;88.10;;;;;;5093235;28;20188;-85
2022/04/18 07:15:00;;;;;;;2.47;1.30;;;15.90;88.60;;;;;;5093123;28;20202;-82
2022/04/18 07:17:25;;;;;;;2.72;1.15;;;15.70;89.10;;;;;;5093300;28;20317;-76
2022/04/18 07:19:51;;;;;;;2.88;1.40;;;15.70;88.90;;;;;;5093453;28;20587;-85
2022/04/18 07:22:17;;;;;;;1.60;1.10;;;15.70;89.10;;;;;;5093483;28;20365;-86
2022/04/18 07:24:42;;;;;;;3.38;1.30;;;15.70;89.30;;;;;;5093383;28;20238;-85
2022/04/18 07:27:08;;;;;;;1.20;1.00;;;15.70;89.30;;;;;;5093367;28;20170;-77
2022/04/18 07:29:33;;;;;;;1.38;1.10;;;15.90;88.50;;;;;;5093477;28;20165;-77
2022/04/18 07:31:59;;;;;;;1.48;1.20;;;15.80;88.90;;;;;;5098431;28;20162;-81
2022/04/18 07:34:25;;;;;;;1.38;1.05;;;16.10;90.10;;;;;;5094334;28;20219;-80
2022/04/18 07:36:50;;;;;;;4.85;1.17;;;16.30;89.60;;;;;;5092072;28;20169;-80
2022/04/18 07:39:16;;;;;;;1.58;1.20;;;16.20;87.70;;;;;;5092296;28;20197;-81
2022/04/18 07:41:42;;;;;;;7.43;1.50;;;16.10;88.60;;;;;;5092552;28;20162;-76
2022/04/18 07:44:07;;;;;;;2.78;1.20;;;16.00;88.00;;;;;;5092344;28;20649;-77
2022/04/18 07:46:33;;;;;;;2.22;1.58;;;16.00;88.10;;;;;;5092751;28;20172;-76
2022/04/18 07:48:59;;;;;;;4.32;1.25;;;16.00;89.10;;;;;;5091944;28;20238;-76
2022/04/18 07:51:42;;;;;;;2.25;1.65;;;16.10;88.10;;;;;;5092672;28;20174;-77
2022/04/18 07:54:10;;;;;;;5.47;2.40;;;16.10;88.60;;;;;;5092355;28;20185;-75
2022/04/18 07:56:37;;;;;;;2.55;1.40;;;16.20;88.80;;;;;;5108290;28;20177;-75
2022/04/18 07:59:03;;;;;;;3.40;1.38;;;16.30;89.30;;;;;;5092102;28;20208;-74
2022/04/18 08:01:28;;;;;;;1.80;1.20;;;16.20;87.70;;;;;;5092421;28;20170;-75
2022/04/18 08:03:54;;;;;;;4.38;1.20;;;16.20;87.60;;;;;;5095635;28;20235;-75
2022/04/18 08:06:20;;;;;;;3.00;1.10;;;16.20;87.20;;;;;;5115736;28;20171;-75
2022/04/18 08:08:46;;;;;;;2.45;1.33;;;16.20;87.30;;;;;;5103092;28;20539;-79
2022/04/18 08:11:14;;;;;;;1.50;1.05;;;16.00;89.00;;;;;;5097717;28;20158;-81
2022/04/18 08:13:44;;;;;;;1.20;1.10;;;15.90;89.70;;;;;;5097239;28;20206;-81
2022/04/18 08:16:11;;;;;;;1.80;1.00;;;16.10;88.20;;;;;;5096855;28;20197;-81
2022/04/18 08:18:39;;;;;;;1.70;1.40;;;16.50;87.70;;;;;;5112694;28;20653;-83
2022/04/18 08:21:05;;;;;;;1.83;1.60;;;16.50;87.80;;;;;;5097141;28;20185;-87
2022/04/18 08:23:32;;;;;;;3.13;1.15;;;16.60;88.70;;;;;;5095855;28;20182;-76
2022/04/18 08:25:57;;;;;;;2.90;1.30;;;16.60;88.10;;;;;;5095742;28;20227;-75
2022/04/18 08:28:23;;;;;;;2.03;1.23;;;16.70;87.00;;;;;;5089426;28;20182;-75
2022/04/18 08:30:49;;;;;;;1.85;1.40;;;17.00;87.00;;;;;;5075056;28;20170;-76
2022/04/18 08:33:15;;;;;;;3.05;1.65;;;17.10;86.80;;;;;;5090613;28;20277;-78
2022/04/18 08:35:41;;;;;;;2.22;1.55;;;17.10;87.00;;;;;;5075234;28;20210;-77
2022/04/18 08:38:06;;;;;;;2.17;1.52;;;16.70;87.40;;;;;;5074859;28;20638;-77
2022/04/18 08:40:33;;;;;;;2.25;1.50;;;16.60;88.30;;;;;;5074988;28;20166;-77
2022/04/18 08:42:59;;;;;;;3.78;1.58;;;16.60;87.90;;;;;;5074965;28;20159;-77
2022/04/18 08:45:26;;;;;;;1.58;1.45;;;16.80;88.70;;;;;;5074990;28;20181;-78
2022/04/18 08:53:28;;;;;;;3.53;1.20;;;16.90;88.00;;;;;;5075150;28;20197;-76
2022/04/18 08:55:55;;;;;;;3.35;1.60;;;17.10;90.00;;;;;;5090624;28;20719;-81
2022/04/18 08:58:22;;;;;;;3.10;1.85;;;17.40;89.30;;;;;;5074349;28;20245;-78
2022/04/18 09:00:48;;;;;;;4.93;1.45;;;17.60;86.50;;;;;;5074764;28;20257;-79
2022/04/18 09:03:14;;;;;;;1.60;1.30;;;17.60;89.30;;;;;;5074677;28;20228;-77
2022/04/18 09:05:39;;;;;;;2.40;1.58;;;17.80;88.10;;;;;;5074025;28;20174;-77
2022/04/18 09:08:07;;;;;;;2.72;1.67;;;18.10;84.60;;;;;;5072631;28;20924;-76
2022/04/18 09:10:34;;;;;;;2.35;1.02;;;18.20;86.20;;;;;;5076521;28;20173;-79
2022/04/18 09:13:11;;;;;;;2.25;1.50;;;18.20;85.70;;;;;;5074982;28;20552;-80
2022/04/18 09:15:39;;;;;;;1.80;1.42;;;18.10;85.10;;;;;;5073275;28;20206;-78
2022/04/18 09:18:20;;;;;;;2.10;1.27;;;18.10;83.80;;;;;;5080511;28;20249;-76
2022/04/18 09:20:47;;;;;;;1.83;1.50;;;18.20;84.90;;;;;;5088726;28;20184;-91
2022/04/18 09:23:18;;;;;;;2.42;1.20;;;18.00;85.80;;;;;;5095575;28;20194;-86
2022/04/18 09:25:44;;;;;;;2.60;1.58;;;18.20;82.90;;;;;;5096241;28;20272;-89
2022/04/18 09:28:11;;;;;;;2.70;1.50;;;18.40;84.30;;;;;;5094817;28;20198;-78
2022/04/18 09:30:37;;;;;;;1.50;1.40;;;18.60;84.00;;;;;;5094900;28;20206;-81
2022/04/18 09:33:04;;;;;;;2.05;1.50;;;18.50;82.70;;;;;;5094857;28;20690;-81
2022/04/18 09:35:30;;;;;;;4.40;1.50;;;18.60;81.10;;;;;;5110081;28;20197;-77
2022/04/18 09:38:00;;;;;;;1.65;1.20;;;18.70;82.00;;;;;;5095678;28;20173;-92
2022/04/18 09:40:26;;;;;;;2.90;1.65;;;18.80;85.70;;;;;;5084786;28;20186;-86
2022/04/18 09:42:53;;;;;;;1.30;1.20;;;18.90;84.20;;;;;;5075044;28;20231;-80
2022/04/18 09:45:19;;;;;;;1.23;1.13;;;19.00;80.80;;;;;;5074555;28;20176;-78
2022/04/18 09:47:52;;;;;;;1.30;1.15;;;19.00;81.60;;;;;;5074713;28;20242;-85
2022/04/18 09:53:36;;;;;;;6.47;1.58;;;18.80;80.90;;;;;;5074644;28;20317;-89
2022/04/18 09:56:02;;;;;;;3.33;1.30;;;18.90;80.10;;;;;;5071612;28;20245;-77
2022/04/18 09:58:27;;;;;;;0.98;0.90;;;18.90;77.00;;;;;;5072838;28;20198;-77
2022/04/18 10:00:54;;;;;;;1.35;1.25;;;18.80;77.80;;;;;;5074092;28;20174;-77
2022/04/18 10:03:20;;;;;;;2.10;1.30;;;18.80;82.40;;;;;;5073382;28;20577;-85
2022/04/18 10:05:48;;;;;;;3.35;1.42;;;19.00;77.20;;;;;;5073343;28;20158;-78
2022/04/18 10:08:15;;;;;;;1.30;1.20;;;19.10;75.90;;;;;;5071152;28;20170;-83
2022/04/18 10:10:40;;;;;;;1.48;1.25;;;18.90;75.20;;;;;;5078944;28;20207;-77
2022/04/18 10:13:07;;;;;;;1.23;1.10;;;19.00;72.60;;;;;;5092532;28;20193;-77
2022/04/18 10:15:39;;;;;;;1.23;1.13;;;18.80;76.80;;;;;;5093845;28;20198;-78
2022/04/18 10:18:08;;;;;;;3.03;1.10;;;18.50;74.80;;;;;;5094224;28;20177;-76
2022/04/18 10:21:08;;;;;;;2.85;1.40;;;18.70;75.20;;;;;;5093239;28;20659;-82
2022/04/18 10:23:52;;;;;;;1.77;1.10;;;18.90;74.90;;;;;;5084947;28;20190;-76
2022/04/18 10:26:34;;;;;;;2.13;1.30;;;18.90;75.00;;;;;;5078393;28;20710;-86
2022/04/18 10:29:12;;;;;;;1.20;1.10;;;19.00;75.40;;;;;;5072374;28;20172;-80
2022/04/18 10:31:41;;;;;;;4.95;2.10;;;19.20;75.70;;;;;;5072966;28;20645;-87
2022/04/18 10:34:08;;;;;;;1.77;1.60;;;19.10;75.30;;;;;;5073003;28;20647;-83
2022/04/18 10:36:34;;;;;;;4.03;1.83;;;19.00;74.70;;;;;;5073720;28;20158;-84
2022/04/18 10:39:05;;;;;;;5.43;2.20;;;19.10;74.50;;;;;;5071292;28;20173;-85
2022/04/18 10:41:36;;;;;;;2.95;1.88;;;19.10;75.90;;;;;;5087991;28;20181;-82
2022/04/18 10:44:12;;;;;;;1.85;1.50;;;19.20;74.20;;;;;;5087430;28;20202;-82
2022/04/18 10:46:42;;;;;;;1.92;1.10;;;19.30;73.90;;;;;;5071916;28;20259;-76
2022/04/18 10:49:18;;;;;;;1.95;1.35;;;19.10;74.40;;;;;;5072347;28;20241;-75
2022/04/18 10:51:46;;;;;;;1.92;1.35;;;19.20;74.40;;;;;;5070965;28;20174;-76
2022/04/18 10:54:23;;;;;;;1.48;1.35;;;19.10;74.10;;;;;;5071698;28;20257;-76
2022/04/18 10:56:56;;;;;;;8.27;3.88;;;18.90;72.90;;;;;;5072028;28;20182;-76
2022/04/18 10:59:24;;;;;;;2.00;1.50;;;19.00;76.90;;;;;;5072624;28;20207;-85
2022/04/18 11:01:51;;;;;;;2.88;1.30;;;19.10;73.90;;;;;;5073461;28;20513;-87
2022/04/18 11:04:17;;;;;;;3.88;2.35;;;19.10;72.00;;;;;;5074011;28;20179;-87
2022/04/18 11:06:45;;;;;;;1.77;1.33;;;19.00;72.20;;;;;;5072144;28;20638;-86
2022/04/18 11:09:16;;;;;;;4.72;1.33;;;19.00;72.40;;;;;;5073628;28;20175;-86
2022/04/18 11:11:55;;;;;;;10.85;2.00;;;19.10;72.50;;;;;;5073080;28;20242;-87
2022/04/18 11:14:25;;;;;;;2.28;1.90;;;19.30;71.70;;;;;;5072799;28;20205;-87
2022/04/18 11:16:56;;;;;;;6.35;4.57;;;19.30;72.90;;;;;;5073903;28;20163;-88
2022/04/18 11:19:25;;;;;;;12.32;5.22;;;19.40;73.60;;;;;;5072442;28;20167;-87
2022/04/18 11:21:57;;;;;;;3.17;1.95;;;19.40;75.10;;;;;;5072150;28;20619;-81
2022/04/18 11:24:42;;;;;;;1.33;1.10;;;19.60;74.90;;;;;;5075735;28;20202;-85
2022/04/18 11:27:12;;;;;;;1.35;1.15;;;19.60;74.10;;;;;;5073057;28;20169;-81
2022/04/18 11:29:40;;;;;;;3.05;1.30;;;19.50;74.80;;;;;;5072712;28;20165;-85
2022/04/18 11:32:06;;;;;;;3.67;2.03;;;19.60;73.10;;;;;;5072443;28;20645;-79
2022/04/18 11:34:34;;;;;;;1.85;1.42;;;19.70;71.00;;;;;;5070894;28;20317;-79
2022/04/18 11:37:02;;;;;;;10.10;3.38;;;19.70;72.30;;;;;;5070704;28;20197;-85
2022/04/18 11:39:46;;;;;;;3.42;1.90;;;19.60;71.10;;;;;;5070336;28;20607;-83
2022/04/18 11:42:20;;;;;;;1.45;1.30;;;19.70;70.50;;;;;;5070617;28;20178;-83
2022/04/18 11:44:47;;;;;;;4.93;1.30;;;19.60;70.80;;;;;;5069479;28;20188;-89
2022/04/18 11:47:22;;;;;;;4.55;2.63;;;19.70;70.70;;;;;;5071012;28;20199;-81
2022/04/18 11:49:49;;;;;;;6.40;4.07;;;19.80;70.00;;;;;;5069919;28;20179;-79
2022/04/18 11:52:26;;;;;;;3.50;1.85;;;19.60;70.80;;;;;;5070053;28;20587;-86
2022/04/18 11:55:01;;;;;;;1.63;1.33;;;19.60;70.30;;;;;;5072211;28;20273;-78
2022/04/18 11:57:29;;;;;;;1.90;1.50;;;19.60;70.00;;;;;;5071348;28;20197;-81
2022/04/18 11:59:55;;;;;;;1.58;1.33;;;19.70;70.00;;;;;;5069790;28;20186;-81
2022/04/18 12:07:52;;;;;;;1.52;1.40;;;19.60;69.00;;;;;;5071908;28;20217;-81
2022/04/18 12:10:23;;;;;;;4.68;1.42;;;19.80;70.00;;;;;;5071283;28;20629;-80
2022/04/18 12:12:48;;;;;;;2.55;1.30;;;19.70;69.70;;;;;;5070149;28;20642;-81
2022/04/18 12:15:14;;;;;;;1.20;0.95;;;19.60;69.00;;;;;;5069671;28;20217;-83
2022/04/18 12:17:40;;;;;;;3.17;1.80;;;19.60;69.70;;;;;;5071400;28;20165;-87
2022/04/18 12:20:28;;;;;;;1.48;1.02;;;19.50;69.50;;;;;;5069772;28;20166;-82
2022/04/18 12:22:58;;;;;;;4.97;1.25;;;19.60;69.50;;;;;;5070090;28;20177;-82
2022/04/18 12:25:26;;;;;;;8.85;1.38;;;19.70;69.90;;;;;;5070867;28;20190;-83
2022/04/18 12:27:53;;;;;;;1.40;1.20;;;19.70;69.30;;;;;;5069891;28;20191;-85
2022/04/18 12:30:19;;;;;;;1.85;1.20;;;19.90;68.80;;;;;;5070276;28;20178;-85
2022/04/18 12:32:47;;;;;;;1.10;1.00;;;20.10;68.00;;;;;;5069131;28;20170;-84
2022/04/18 12:35:36;;;;;;;4.25;1.58;;;20.00;68.20;;;;;;5070732;28;20229;-82
2022/04/18 12:38:08;;;;;;;2.38;1.30;;;19.80;69.60;;;;;;5088019;28;20566;-85
2022/04/18 12:40:42;;;;;;;1.58;1.17;;;19.90;69.10;;;;;;5091898;28;20171;-84
2022/04/18 12:43:10;;;;;;;1.50;1.38;;;19.70;69.20;;;;;;5091149;28;20192;-83
2022/04/18 12:45:50;;;;;;;3.83;2.00;;;19.70;70.10;;;;;;5107289;28;20197;-84
2022/04/18 12:48:24;;;;;;;1.50;1.40;;;19.80;70.10;;;;;;5092019;28;20184;-85
2022/04/18 12:50:51;;;;;;;3.60;2.15;;;20.00;70.20;;;;;;5093574;28;20180;-86
2022/04/18 12:53:17;;;;;;;1.65;1.40;;;20.20;70.60;;;;;;5094907;28;20905;-86
2022/04/18 12:55:43;;;;;;;3.65;2.00;;;20.10;71.60;;;;;;5095971;28;20208;-86
2022/04/18 12:58:20;;;;;;;1.88;1.20;;;20.00;70.90;;;;;;5096518;28;20170;-86
2022/04/18 13:00:49;;;;;;;1.33;1.20;;;19.80;69.80;;;;;;5096569;28;20178;-86
2022/04/18 13:03:17;;;;;;;2.88;1.30;;;19.90;70.70;;;;;;5095747;28;20265;-82
2022/04/18 13:05:50;;;;;;;1.90;1.60;;;20.00;71.70;;;;;;5111824;28;20256;-85
2022/04/18 13:08:17;;;;;;;4.53;1.35;;;20.00;72.40;;;;;;5096302;28;20195;-87
2022/04/18 13:10:43;;;;;;;7.60;1.40;;;20.10;72.20;;;;;;5099338;28;20162;-85